createdAt,value
2018-03-20T00:00:05.989Z,64.17
2018-03-20T00:01:05.955Z,64.45
2018-03-20T00:02:05.924Z,64.45
2018-03-20T00:03:05.900Z,65.08
2018-03-20T00:04:05.867Z,65.11
2018-03-20T00:05:05.847Z,64.83
2018-03-20T00:06:05.809Z,64.73
2018-03-20T00:07:05.785Z,64.83
2018-03-20T00:08:05.753Z,64.14
2018-03-20T00:09:05.725Z,64.04
2018-03-20T00:10:05.699Z,63.10
2018-03-20T00:11:05.673Z,63.19
2018-03-20T00:12:05.642Z,63.38
2018-03-20T00:13:05.609Z,63.48
2018-03-20T00:14:05.574Z,63.10
2018-03-20T00:15:05.573Z,62.34
2018-03-20T00:16:05.517Z,62.44
2018-03-20T00:17:05.500Z,61.49
2018-03-20T00:18:05.467Z,61.11
2018-03-20T00:19:05.436Z,61.21
2018-03-20T00:20:05.410Z,61.02
2018-03-20T00:21:05.374Z,60.83
2018-03-20T00:22:05.341Z,61.02
2018-03-20T00:23:05.322Z,61.21
2018-03-20T00:24:05.298Z,62.06
2018-03-20T00:25:05.262Z,61.87
2018-03-20T00:26:05.236Z,61.87
2018-03-20T00:27:05.202Z,62.25
2018-03-20T00:28:05.173Z,63.10
2018-03-20T00:29:05.148Z,62.53
2018-03-20T00:30:05.114Z,62.44
2018-03-20T00:31:05.087Z,63.19
2018-03-20T00:32:05.059Z,63.10
2018-03-20T00:33:05.023Z,63.48
2018-03-20T00:34:05.000Z,63.10
2018-03-20T00:35:04.967Z,63.00
2018-03-20T00:36:04.945Z,62.91
2018-03-20T00:37:04.905Z,62.15
2018-03-20T00:38:04.881Z,61.40
2018-03-20T00:39:04.847Z,62.06
2018-03-20T00:40:04.826Z,62.25
2018-03-20T00:41:04.796Z,61.68
2018-03-20T00:42:04.755Z,62.15
2018-03-20T00:43:04.731Z,61.87
2018-03-20T00:44:04.702Z,60.17
2018-03-20T00:45:04.680Z,60.36
2018-03-20T00:46:04.645Z,59.60
2018-03-20T00:47:04.610Z,59.03
2018-03-20T00:48:04.590Z,59.60
2018-03-20T00:49:04.550Z,60.17
2018-03-20T00:50:04.523Z,59.22
2018-03-20T00:51:04.500Z,59.03
2018-03-20T00:52:04.479Z,58.28
2018-03-20T00:53:04.444Z,58.09
2018-03-20T00:54:04.406Z,57.90
2018-03-20T00:55:04.387Z,58.37
2018-03-20T00:56:04.360Z,58.65
2018-03-20T00:57:04.317Z,58.65
2018-03-20T00:58:04.296Z,58.37
2018-03-20T00:59:04.262Z,58.56
2018-03-20T01:00:04.234Z,59.13
2018-03-20T01:01:04.210Z,59.98
2018-03-20T01:02:04.175Z,60.64
2018-03-20T01:03:04.149Z,59.41
2018-03-20T01:04:04.126Z,59.70
2018-03-20T01:05:04.088Z,59.51
2018-03-20T01:06:04.055Z,59.98
2018-03-20T01:07:04.027Z,59.51
2018-03-20T01:08:04.002Z,59.70
2018-03-20T01:09:03.970Z,59.51
2018-03-20T01:10:03.942Z,60.55
2018-03-20T01:11:03.911Z,60.83
2018-03-20T01:12:03.877Z,61.11
2018-03-20T01:13:03.857Z,61.96
2018-03-20T01:14:03.821Z,61.87
2018-03-20T01:15:03.795Z,62.44
2018-03-20T01:16:03.772Z,63.29
2018-03-20T01:17:03.732Z,63.95
2018-03-20T01:18:03.707Z,63.95
2018-03-20T01:19:03.680Z,63.95
2018-03-20T01:20:03.655Z,64.42
2018-03-20T01:21:03.627Z,64.51
2018-03-20T01:22:03.588Z,65.08
2018-03-20T01:23:03.562Z,64.89
2018-03-20T01:24:03.534Z,66.22
2018-03-20T01:25:03.502Z,66.41
2018-03-20T01:26:03.470Z,66.59
2018-03-20T01:27:03.442Z,66.78
2018-03-20T01:28:03.416Z,67.25
2018-03-20T01:29:03.383Z,67.63
2018-03-20T01:30:03.360Z,68.01
2018-03-20T01:31:03.352Z,69.05
2018-03-20T01:32:03.297Z,69.24
2018-03-20T01:33:03.273Z,69.52
2018-03-20T01:34:03.235Z,69.81
2018-03-20T01:35:03.213Z,70.28
2018-03-20T01:36:03.182Z,69.90
2018-03-20T01:37:03.147Z,70.94
2018-03-20T01:38:03.125Z,70.56
2018-03-20T01:39:03.087Z,70.84
2018-03-20T01:40:03.073Z,69.43
2018-03-20T01:41:03.032Z,69.05
2018-03-20T01:42:03.005Z,69.24
2018-03-20T01:43:02.970Z,69.24
2018-03-20T01:44:02.939Z,69.24
2018-03-20T01:45:02.909Z,68.76
2018-03-20T01:46:02.885Z,68.86
2018-03-20T01:47:02.856Z,67.72
2018-03-20T01:48:02.825Z,68.67
2018-03-20T01:49:02.813Z,68.95
2018-03-20T01:50:02.776Z,68.86
2018-03-20T01:51:02.739Z,69.14
2018-03-20T01:52:02.721Z,69.52
2018-03-20T01:53:02.677Z,69.90
2018-03-20T01:54:02.646Z,69.33
2018-03-20T01:55:02.623Z,69.81
2018-03-20T01:56:02.587Z,69.43
2018-03-20T01:57:02.571Z,69.33
2018-03-20T01:58:02.533Z,69.24
2018-03-20T01:59:02.547Z,68.57
2018-03-20T02:00:02.481Z,68.67
2018-03-20T02:01:02.438Z,68.95
2018-03-20T02:02:02.410Z,68.10
2018-03-20T02:03:02.384Z,68.29
2018-03-20T02:04:02.361Z,67.54
2018-03-20T02:05:02.326Z,68.20
2018-03-20T02:06:02.300Z,68.10
2018-03-20T02:07:02.270Z,67.82
2018-03-20T02:08:02.248Z,67.82
2018-03-20T02:09:02.211Z,67.91
2018-03-20T02:10:02.178Z,67.72
2018-03-20T02:11:02.150Z,67.82
2018-03-20T02:12:02.119Z,67.85
2018-03-20T02:13:02.102Z,68.42
2018-03-20T02:14:02.061Z,68.80
2018-03-20T02:15:02.041Z,68.33
2018-03-20T02:16:02.006Z,68.61
2018-03-20T02:17:01.972Z,68.42
2018-03-20T02:18:01.939Z,67.57
2018-03-20T02:19:01.918Z,67.38
2018-03-20T02:20:01.889Z,67.19
2018-03-20T02:21:01.861Z,67.10
2018-03-20T02:22:01.831Z,67.47
2018-03-20T02:23:01.801Z,67.29
2018-03-20T02:24:01.767Z,67.76
2018-03-20T02:25:01.748Z,67.47
2018-03-20T02:26:01.708Z,67.47
2018-03-20T02:27:01.690Z,68.14
2018-03-20T02:28:01.658Z,67.76
2018-03-20T02:29:01.627Z,67.95
2018-03-20T02:30:01.598Z,68.04
2018-03-20T02:31:01.564Z,67.57
2018-03-20T02:32:01.543Z,67.76
2018-03-20T02:33:01.511Z,67.76
2018-03-20T02:34:01.477Z,67.10
2018-03-20T02:35:01.452Z,65.97
2018-03-20T02:36:01.417Z,64.45
2018-03-20T02:37:01.396Z,63.60
2018-03-20T02:38:01.373Z,63.98
2018-03-20T02:39:01.331Z,64.83
2018-03-20T02:40:01.309Z,65.40
2018-03-20T02:41:01.281Z,66.25
2018-03-20T02:42:01.245Z,65.97
2018-03-20T02:43:01.231Z,66.63
2018-03-20T02:44:01.193Z,66.25
2018-03-20T02:45:01.164Z,65.78
2018-03-20T02:46:01.134Z,66.25
2018-03-20T02:47:01.103Z,66.25
2018-03-20T02:48:01.074Z,67.00
2018-03-20T02:49:01.048Z,67.10
2018-03-20T02:50:01.017Z,66.72
2018-03-20T02:51:01.008Z,66.91
2018-03-20T02:52:00.963Z,67.19
2018-03-20T02:53:00.931Z,67.76
2018-03-20T02:54:00.906Z,68.52
2018-03-20T02:55:00.881Z,68.52
2018-03-20T02:56:00.841Z,68.71
2018-03-20T02:57:00.814Z,70.12
2018-03-20T02:58:00.787Z,71.26
2018-03-20T02:59:00.751Z,70.78
2018-03-20T03:00:00.732Z,70.03
2018-03-20T03:01:00.698Z,70.12
2018-03-20T03:02:00.664Z,70.40
2018-03-20T03:03:00.644Z,70.03
2018-03-20T03:04:00.628Z,69.93
2018-03-20T03:05:00.587Z,69.74
2018-03-20T03:06:00.561Z,68.61
2018-03-20T03:07:00.528Z,68.14
2018-03-20T03:08:00.496Z,66.82
2018-03-20T03:09:00.473Z,67.38
2018-03-20T03:10:00.434Z,67.38
2018-03-20T03:11:00.412Z,66.82
2018-03-20T03:12:00.429Z,66.63
2018-03-20T03:13:00.347Z,67.19
2018-03-20T03:14:00.327Z,66.82
2018-03-20T03:15:00.290Z,67.00
2018-03-20T03:16:00.282Z,67.38
2018-03-20T03:17:00.239Z,68.04
2018-03-20T03:18:00.208Z,68.04
2018-03-20T03:19:00.172Z,68.99
2018-03-20T03:20:00.154Z,68.99
2018-03-20T03:21:00.129Z,68.33
2018-03-20T03:22:00.092Z,68.71
2018-03-20T03:23:00.071Z,68.61
2018-03-20T03:24:00.030Z,69.46
2018-03-20T03:25:00.007Z,69.27
2018-03-20T03:25:59.975Z,70.69
2018-03-20T03:26:59.956Z,71.73
2018-03-20T03:27:59.922Z,71.64
2018-03-20T03:28:59.886Z,73.24
2018-03-20T03:29:59.870Z,73.62
2018-03-20T03:30:59.840Z,75.23
2018-03-20T03:31:59.799Z,75.13
2018-03-20T03:32:59.776Z,74.28
2018-03-20T03:33:59.748Z,74.76
2018-03-20T03:34:59.721Z,75.04
2018-03-20T03:35:59.696Z,75.04
2018-03-20T03:36:59.658Z,75.79
2018-03-20T03:37:59.630Z,77.50
2018-03-20T03:38:59.604Z,78.25
2018-03-20T03:39:59.568Z,78.63
2018-03-20T03:40:59.550Z,79.95
2018-03-20T03:41:59.520Z,82.22
2018-03-20T03:42:59.492Z,80.90
2018-03-20T03:43:59.466Z,81.74
2018-03-20T03:44:59.424Z,82.31
2018-03-20T03:45:59.402Z,81.65
2018-03-20T03:46:59.368Z,83.83
2018-03-20T03:47:59.345Z,84.77
2018-03-20T03:48:59.316Z,85.62
2018-03-20T03:49:59.280Z,86.19
2018-03-20T03:50:59.251Z,86.66
2018-03-20T03:51:59.222Z,87.23
2018-03-20T03:52:59.197Z,88.08
2018-03-20T03:53:59.164Z,88.98
2018-03-20T03:54:59.134Z,88.98
2018-03-20T03:55:59.108Z,89.64
2018-03-20T03:56:59.078Z,90.49
2018-03-20T03:57:59.048Z,90.40
2018-03-20T03:58:59.019Z,90.49
2018-03-20T03:59:58.992Z,90.87
2018-03-20T04:00:58.965Z,90.87
2018-03-20T04:01:58.937Z,90.77
2018-03-20T04:02:58.905Z,91.82
2018-03-20T04:03:58.870Z,91.15
2018-03-20T04:04:58.847Z,90.68
2018-03-20T04:05:58.825Z,91.06
2018-03-20T04:06:58.796Z,90.87
2018-03-20T04:07:58.761Z,91.91
2018-03-20T04:08:58.724Z,91.72
2018-03-20T04:09:58.691Z,91.34
2018-03-20T04:10:58.679Z,90.68
2018-03-20T04:11:58.634Z,91.34
2018-03-20T04:12:58.618Z,91.34
2018-03-20T04:13:58.580Z,91.72
2018-03-20T04:14:58.552Z,91.72
2018-03-20T04:15:58.529Z,91.82
2018-03-20T04:16:58.493Z,91.91
2018-03-20T04:17:58.462Z,91.06
2018-03-20T04:18:58.437Z,91.34
2018-03-20T04:19:58.408Z,90.77
2018-03-20T04:20:58.375Z,90.68
2018-03-20T04:21:58.346Z,90.87
2018-03-20T04:22:58.326Z,91.15
2018-03-20T04:23:58.285Z,91.06
2018-03-20T04:24:58.265Z,90.96
2018-03-20T04:25:58.231Z,91.15
2018-03-20T04:26:58.193Z,90.77
2018-03-20T04:27:58.174Z,89.92
2018-03-20T04:28:58.134Z,89.83
2018-03-20T04:29:58.109Z,90.21
2018-03-20T04:30:58.084Z,89.45
2018-03-20T04:31:58.052Z,89.26
2018-03-20T04:32:58.027Z,88.98
2018-03-20T04:33:57.998Z,88.32
2018-03-20T04:34:57.963Z,88.23
2018-03-20T04:35:57.934Z,88.23
2018-03-20T04:36:57.914Z,86.99
2018-03-20T04:37:57.876Z,87.18
2018-03-20T04:38:57.850Z,87.28
2018-03-20T04:39:57.813Z,86.62
2018-03-20T04:40:57.786Z,85.96
2018-03-20T04:41:57.761Z,86.24
2018-03-20T04:42:57.725Z,86.43
2018-03-20T04:43:57.703Z,86.24
2018-03-20T04:44:57.669Z,85.39
2018-03-20T04:45:57.644Z,85.49
2018-03-20T04:46:57.620Z,85.49
2018-03-20T04:47:57.579Z,85.01
2018-03-20T04:48:57.556Z,85.49
2018-03-20T04:49:57.526Z,85.68
2018-03-20T04:50:57.488Z,85.49
2018-03-20T04:51:57.462Z,85.77
2018-03-20T04:52:57.435Z,86.15
2018-03-20T04:53:57.398Z,86.15
2018-03-20T04:54:57.375Z,85.96
2018-03-20T04:55:57.344Z,85.49
2018-03-20T04:56:57.312Z,86.33
2018-03-20T04:57:57.289Z,85.58
2018-03-20T04:58:57.258Z,85.39
2018-03-20T04:59:57.248Z,86.43
2018-03-20T05:00:57.236Z,85.77
2018-03-20T05:01:57.160Z,86.33
2018-03-20T05:02:57.139Z,86.15
2018-03-20T05:03:57.110Z,85.68
2018-03-20T05:04:57.074Z,86.33
2018-03-20T05:05:57.059Z,85.39
2018-03-20T05:06:57.013Z,85.68
2018-03-20T05:07:56.988Z,86.24
2018-03-20T05:08:56.965Z,85.11
2018-03-20T05:09:56.924Z,85.01
2018-03-20T05:10:56.909Z,85.68
2018-03-20T05:11:56.876Z,84.82
2018-03-20T05:12:56.836Z,84.64
2018-03-20T05:13:56.817Z,85.49
2018-03-20T05:14:56.786Z,83.69
2018-03-20T05:15:56.762Z,83.88
2018-03-20T05:16:56.718Z,84.16
2018-03-20T05:17:56.695Z,84.45
2018-03-20T05:18:56.666Z,84.16
2018-03-20T05:19:56.641Z,84.64
2018-03-20T05:20:56.614Z,84.26
2018-03-20T05:21:56.583Z,84.35
2018-03-20T05:22:56.552Z,84.64
2018-03-20T05:23:56.523Z,84.64
2018-03-20T05:24:56.495Z,83.97
2018-03-20T05:25:56.464Z,83.88
2018-03-20T05:26:56.434Z,83.69
2018-03-20T05:27:56.398Z,84.64
2018-03-20T05:28:56.416Z,83.97
2018-03-20T05:29:56.353Z,83.78
2018-03-20T05:30:56.322Z,82.09
2018-03-20T05:31:56.289Z,83.22
2018-03-20T05:32:56.256Z,83.03
2018-03-20T05:33:56.223Z,82.56
2018-03-20T05:34:56.206Z,82.37
2018-03-20T05:35:56.168Z,83.40
2018-03-20T05:36:56.141Z,83.88
2018-03-20T05:37:56.116Z,83.12
2018-03-20T05:38:56.079Z,82.46
2018-03-20T05:39:56.051Z,82.69
2018-03-20T05:40:56.022Z,82.93
2018-03-20T05:41:56.006Z,83.03
2018-03-20T05:42:55.961Z,82.28
2018-03-20T05:43:55.939Z,83.12
2018-03-20T05:44:55.904Z,82.75
2018-03-20T05:45:55.879Z,82.37
2018-03-20T05:46:55.854Z,83.03
2018-03-20T05:47:55.814Z,81.99
2018-03-20T05:48:55.789Z,81.14
2018-03-20T05:49:55.760Z,80.76
2018-03-20T05:50:55.730Z,81.33
2018-03-20T05:51:55.703Z,81.33
2018-03-20T05:52:55.676Z,81.52
2018-03-20T05:53:55.640Z,81.33
2018-03-20T05:54:55.619Z,81.04
2018-03-20T05:55:55.583Z,81.61
2018-03-20T05:56:55.557Z,81.52
2018-03-20T05:57:55.528Z,80.85
2018-03-20T05:58:55.496Z,81.23
2018-03-20T05:59:55.481Z,81.14
2018-03-20T06:00:55.434Z,81.23
2018-03-20T06:01:55.403Z,81.04
2018-03-20T06:02:55.381Z,80.85
2018-03-20T06:03:55.353Z,81.14
2018-03-20T06:04:55.322Z,81.04
2018-03-20T06:05:55.286Z,81.04
2018-03-20T06:06:55.273Z,81.33
2018-03-20T06:07:55.237Z,80.76
2018-03-20T06:08:55.202Z,81.42
2018-03-20T06:09:55.171Z,81.04
2018-03-20T06:10:55.145Z,81.71
2018-03-20T06:11:55.121Z,81.27
2018-03-20T06:12:55.083Z,80.85
2018-03-20T06:13:55.060Z,81.14
2018-03-20T06:14:55.030Z,81.04
2018-03-20T06:15:54.999Z,81.14
2018-03-20T06:16:54.977Z,81.71
2018-03-20T06:17:54.939Z,81.61
2018-03-20T06:18:54.910Z,81.71
2018-03-20T06:19:54.879Z,81.80
2018-03-20T06:20:54.857Z,81.09
2018-03-20T06:21:54.837Z,81.56
2018-03-20T06:22:54.800Z,81.93
2018-03-20T06:23:54.763Z,82.50
2018-03-20T06:24:54.745Z,82.50
2018-03-20T06:25:54.706Z,81.46
2018-03-20T06:26:54.683Z,81.93
2018-03-20T06:27:54.654Z,82.03
2018-03-20T06:28:54.618Z,82.03
2018-03-20T06:29:54.588Z,81.74
2018-03-20T06:30:54.557Z,82.03
2018-03-20T06:31:54.533Z,81.84
2018-03-20T06:32:54.508Z,81.56
2018-03-20T06:33:54.469Z,81.46
2018-03-20T06:34:54.447Z,82.03
2018-03-20T06:35:54.405Z,82.69
2018-03-20T06:36:54.386Z,82.22
2018-03-20T06:37:54.348Z,81.74
2018-03-20T06:38:54.328Z,81.65
2018-03-20T06:39:54.297Z,82.03
2018-03-20T06:40:54.268Z,82.12
2018-03-20T06:41:54.236Z,82.22
2018-03-20T06:42:54.215Z,81.93
2018-03-20T06:43:54.180Z,82.03
2018-03-20T06:44:54.147Z,82.12
2018-03-20T06:45:54.119Z,81.74
2018-03-20T06:46:54.099Z,82.12
2018-03-20T06:47:54.069Z,82.31
2018-03-20T06:48:54.033Z,82.12
2018-03-20T06:49:54.010Z,80.90
2018-03-20T06:50:53.970Z,81.46
2018-03-20T06:51:53.956Z,81.46
2018-03-20T06:52:53.914Z,81.46
2018-03-20T06:53:53.885Z,81.46
2018-03-20T06:54:53.857Z,81.65
2018-03-20T06:55:53.826Z,81.56
2018-03-20T06:56:53.811Z,81.27
2018-03-20T06:57:53.779Z,81.09
2018-03-20T06:58:53.744Z,80.62
2018-03-20T06:59:53.721Z,80.90
2018-03-20T07:00:53.683Z,80.71
2018-03-20T07:01:53.665Z,81.60
2018-03-20T07:02:53.627Z,81.22
2018-03-20T07:03:53.595Z,81.56
2018-03-20T07:04:53.574Z,80.90
2018-03-20T07:05:53.537Z,81.13
2018-03-20T07:06:53.542Z,81.13
2018-03-20T07:07:53.485Z,81.13
2018-03-20T07:08:53.459Z,81.22
2018-03-20T07:09:53.428Z,81.13
2018-03-20T07:10:53.394Z,81.22
2018-03-20T07:11:53.373Z,81.32
2018-03-20T07:12:53.345Z,81.22
2018-03-20T07:13:53.306Z,81.70
2018-03-20T07:14:53.301Z,81.60
2018-03-20T07:15:53.251Z,81.79
2018-03-20T07:16:53.229Z,81.70
2018-03-20T07:17:53.205Z,81.51
2018-03-20T07:18:53.164Z,81.79
2018-03-20T07:19:53.134Z,81.41
2018-03-20T07:20:53.102Z,81.22
2018-03-20T07:21:53.074Z,81.79
2018-03-20T07:22:53.102Z,81.79
2018-03-20T07:23:53.026Z,81.60
2018-03-20T07:24:52.990Z,81.51
2018-03-20T07:25:52.974Z,81.79
2018-03-20T07:26:52.934Z,81.22
2018-03-20T07:27:52.907Z,81.22
2018-03-20T07:28:52.889Z,80.84
2018-03-20T07:29:52.847Z,81.60
2018-03-20T07:30:52.829Z,81.32
2018-03-20T07:31:52.800Z,81.32
2018-03-20T07:32:52.762Z,81.60
2018-03-20T07:33:52.740Z,81.32
2018-03-20T07:34:52.753Z,81.32
2018-03-20T07:35:52.718Z,80.27
2018-03-20T07:36:52.652Z,80.84
2018-03-20T07:37:52.620Z,80.75
2018-03-20T07:38:52.596Z,80.46
2018-03-20T07:39:52.618Z,80.94
2018-03-20T07:40:52.538Z,80.84
2018-03-20T07:41:52.505Z,80.65
2018-03-20T07:42:52.476Z,81.03
2018-03-20T07:43:52.451Z,81.22
2018-03-20T07:44:52.419Z,80.27
2018-03-20T07:45:52.389Z,81.41
2018-03-20T07:46:52.366Z,81.32
2018-03-20T07:47:52.333Z,80.88
2018-03-20T07:48:52.325Z,80.79
2018-03-20T07:49:52.354Z,81.26
2018-03-20T07:50:52.264Z,80.69
2018-03-20T07:51:52.224Z,81.45
2018-03-20T07:52:52.260Z,80.69
2018-03-20T07:53:52.218Z,81.36
2018-03-20T07:54:52.196Z,81.74
2018-03-20T07:55:52.104Z,81.64
2018-03-20T07:56:52.077Z,81.45
2018-03-20T07:57:52.052Z,80.88
2018-03-20T07:58:52.108Z,81.26
2018-03-20T07:59:51.989Z,80.98
2018-03-20T08:00:51.968Z,81.45
2018-03-20T08:01:52.036Z,81.17
2018-03-20T08:02:51.923Z,81.64
2018-03-20T08:03:51.874Z,81.93
2018-03-20T08:04:52.014Z,81.83
2018-03-20T08:05:51.826Z,81.55
2018-03-20T08:06:51.900Z,81.74
2018-03-20T08:07:51.791Z,81.07
2018-03-20T08:08:51.738Z,81.87
2018-03-20T08:09:51.705Z,81.59
2018-03-20T08:10:51.680Z,81.59
2018-03-20T08:11:51.642Z,82.06
2018-03-20T08:12:51.624Z,82.25
2018-03-20T08:13:51.591Z,82.15
2018-03-20T08:14:51.561Z,82.06
2018-03-20T08:15:51.541Z,82.82
2018-03-20T08:16:51.507Z,82.82
2018-03-20T08:17:51.518Z,82.82
2018-03-20T08:18:51.449Z,82.63
2018-03-20T08:19:51.427Z,83.48
2018-03-20T08:20:51.397Z,82.63
2018-03-20T08:21:51.361Z,82.82
2018-03-20T08:22:51.337Z,84.05
2018-03-20T08:23:51.317Z,84.14
2018-03-20T08:24:51.286Z,84.23
2018-03-20T08:25:51.249Z,84.75
2018-03-20T08:26:51.284Z,84.94
2018-03-20T08:27:51.195Z,85.13
2018-03-20T08:28:51.241Z,85.99
2018-03-20T08:29:51.146Z,86.74
2018-03-20T08:30:51.166Z,87.31
2018-03-20T08:31:51.168Z,87.69
2018-03-20T08:32:51.062Z,87.02
2018-03-20T08:33:51.028Z,87.21
2018-03-20T08:34:51.054Z,87.02
2018-03-20T08:35:51.005Z,87.12
2018-03-20T08:36:50.949Z,88.82
2018-03-20T08:37:51.145Z,89.01
2018-03-20T08:38:50.888Z,88.64
2018-03-20T08:39:51.008Z,88.07
2018-03-20T08:40:50.894Z,88.64
2018-03-20T08:41:50.865Z,88.35
2018-03-20T08:42:50.791Z,87.88
2018-03-20T08:43:50.751Z,88.45
2018-03-20T08:44:50.782Z,89.58
2018-03-20T08:45:50.771Z,88.73
2018-03-20T08:46:50.688Z,88.82
2018-03-20T08:47:50.680Z,89.30
2018-03-20T08:48:50.672Z,89.20
2018-03-20T08:49:50.639Z,89.63
2018-03-20T08:50:50.661Z,88.54
2018-03-20T08:51:50.587Z,89.91
2018-03-20T08:52:50.529Z,90.67
2018-03-20T08:53:50.480Z,90.48
2018-03-20T08:54:50.532Z,91.14
2018-03-20T08:55:50.465Z,90.58
2018-03-20T08:56:50.483Z,90.67
2018-03-20T08:57:50.409Z,90.67
2018-03-20T08:58:50.403Z,90.48
2018-03-20T08:59:50.311Z,90.67
2018-03-20T09:00:50.287Z,92.66
2018-03-20T09:01:50.252Z,91.24
2018-03-20T09:02:50.234Z,91.71
2018-03-20T09:03:50.254Z,92.09
2018-03-20T09:04:50.169Z,93.04
2018-03-20T09:05:50.214Z,92.57
2018-03-20T09:06:50.185Z,92.09
2018-03-20T09:07:50.146Z,92.38
2018-03-20T09:08:50.111Z,92.38
2018-03-20T09:09:50.086Z,92.19
2018-03-20T09:10:50.072Z,93.89
2018-03-20T09:11:49.978Z,93.13
2018-03-20T09:12:49.972Z,92.38
2018-03-20T09:13:50.012Z,92.85
2018-03-20T09:14:49.893Z,92.85
2018-03-20T09:15:49.938Z,92.57
2018-03-20T09:16:49.843Z,93.23
2018-03-20T09:17:49.816Z,93.51
2018-03-20T09:18:49.786Z,93.13
2018-03-20T09:19:49.751Z,92.94
2018-03-20T09:20:49.733Z,92.85
2018-03-20T09:21:49.699Z,93.80
2018-03-20T09:22:49.682Z,92.85
2018-03-20T09:23:49.652Z,92.66
2018-03-20T09:24:49.686Z,92.80
2018-03-20T09:25:49.647Z,92.99
2018-03-20T09:26:49.619Z,93.37
2018-03-20T09:27:49.571Z,94.13
2018-03-20T09:28:49.618Z,93.27
2018-03-20T09:29:49.575Z,94.13
2018-03-20T09:30:49.488Z,92.90
2018-03-20T09:31:49.420Z,92.99
2018-03-20T09:32:49.404Z,92.99
2018-03-20T09:33:49.403Z,92.42
2018-03-20T09:34:49.431Z,92.80
2018-03-20T09:35:49.538Z,94.51
2018-03-20T09:36:49.436Z,92.90
2018-03-20T09:37:49.277Z,92.42
2018-03-20T09:38:49.304Z,93.08
2018-03-20T09:39:49.212Z,94.32
2018-03-20T09:40:49.288Z,93.94
2018-03-20T09:41:49.151Z,93.08
2018-03-20T09:42:49.241Z,92.23
2018-03-20T09:43:49.108Z,92.42
2018-03-20T09:44:49.068Z,92.00
2018-03-20T09:45:49.045Z,92.57
2018-03-20T09:46:49.009Z,92.19
2018-03-20T09:47:49.023Z,92.19
2018-03-20T09:48:48.955Z,92.66
2018-03-20T09:49:48.962Z,92.19
2018-03-20T09:50:48.902Z,91.81
2018-03-20T09:51:48.895Z,92.09
2018-03-20T09:52:48.857Z,93.13
2018-03-20T09:53:48.870Z,92.19
2018-03-20T09:54:48.792Z,91.43
2018-03-20T09:55:48.768Z,91.28
2018-03-20T09:56:48.789Z,90.58
2018-03-20T09:57:48.708Z,90.58
2018-03-20T09:58:48.684Z,91.28
2018-03-20T09:59:48.680Z,91.19
2018-03-20T10:00:48.629Z,90.15
2018-03-20T10:01:48.659Z,90.81
2018-03-20T10:02:48.574Z,90.15
2018-03-20T10:03:48.543Z,90.05
2018-03-20T10:04:48.504Z,90.72
2018-03-20T10:05:48.479Z,90.34
2018-03-20T10:06:48.537Z,89.96
2018-03-20T10:07:48.454Z,89.67
2018-03-20T10:08:48.426Z,90.53
2018-03-20T10:09:48.427Z,90.72
2018-03-20T10:10:48.352Z,90.05
2018-03-20T10:11:48.318Z,89.96
2018-03-20T10:12:48.291Z,89.96
2018-03-20T10:13:48.292Z,89.96
2018-03-20T10:14:48.290Z,88.54
2018-03-20T10:15:48.229Z,87.97
2018-03-20T10:16:48.214Z,88.06
2018-03-20T10:17:48.199Z,87.87
2018-03-20T10:18:48.152Z,87.77
2018-03-20T10:19:48.098Z,87.59
2018-03-20T10:20:48.070Z,88.44
2018-03-20T10:21:48.037Z,87.49
2018-03-20T10:22:48.022Z,86.83
2018-03-20T10:23:48.048Z,86.55
2018-03-20T10:24:47.961Z,86.16
2018-03-20T10:25:47.975Z,84.74
2018-03-20T10:26:47.901Z,85.78
2018-03-20T10:27:47.871Z,85.41
2018-03-20T10:28:47.844Z,85.60
2018-03-20T10:29:47.848Z,85.60
2018-03-20T10:30:47.791Z,85.41
2018-03-20T10:31:47.797Z,83.98
2018-03-20T10:32:47.729Z,81.71
2018-03-20T10:33:47.715Z,81.24
2018-03-20T10:34:47.682Z,81.99
2018-03-20T10:35:47.657Z,79.53
2018-03-20T10:36:47.626Z,78.87
2018-03-20T10:37:47.595Z,78.67
2018-03-20T10:38:47.572Z,78.67
2018-03-20T10:39:47.537Z,77.92
2018-03-20T10:40:47.516Z,77.16
2018-03-20T10:41:47.488Z,77.16
2018-03-20T10:42:47.448Z,75.59
2018-03-20T10:43:47.481Z,75.17
2018-03-20T10:44:47.416Z,75.31
2018-03-20T10:45:47.367Z,73.65
2018-03-20T10:46:47.348Z,73.84
2018-03-20T10:47:47.323Z,72.52
2018-03-20T10:48:47.293Z,72.93
2018-03-20T10:49:47.266Z,72.84
2018-03-20T10:50:47.243Z,72.36
2018-03-20T10:51:47.204Z,71.80
2018-03-20T10:52:47.183Z,71.80
2018-03-20T10:53:47.153Z,70.47
2018-03-20T10:54:47.124Z,71.32
2018-03-20T10:55:47.095Z,72.08
2018-03-20T10:56:47.067Z,71.51
2018-03-20T10:57:47.042Z,70.09
2018-03-20T10:58:47.011Z,71.22
2018-03-20T10:59:46.985Z,70.18
2018-03-20T11:00:46.956Z,69.13
2018-03-20T11:01:46.930Z,69.23
2018-03-20T11:02:46.904Z,69.55
2018-03-20T11:03:46.954Z,68.89
2018-03-20T11:04:46.856Z,67.56
2018-03-20T11:05:46.844Z,67.33
2018-03-20T11:06:46.800Z,68.60
2018-03-20T11:07:46.763Z,68.51
2018-03-20T11:08:46.743Z,67.56
2018-03-20T11:09:46.713Z,67.94
2018-03-20T11:10:46.678Z,67.33
2018-03-20T11:11:46.649Z,66.96
2018-03-20T11:12:46.652Z,67.33
2018-03-20T11:13:46.648Z,67.37
2018-03-20T11:14:46.622Z,65.85
2018-03-20T11:15:46.598Z,65.28
2018-03-20T11:16:46.565Z,65.19
2018-03-20T11:17:46.484Z,65.28
2018-03-20T11:18:46.466Z,63.48
2018-03-20T11:19:46.484Z,62.62
2018-03-20T11:20:46.402Z,61.68
2018-03-20T11:21:46.376Z,61.30
2018-03-20T11:22:46.379Z,61.30
2018-03-20T11:23:46.384Z,60.63
2018-03-20T11:24:46.293Z,59.40
2018-03-20T11:25:46.266Z,59.11
2018-03-20T11:26:46.274Z,59.21
2018-03-20T11:27:46.212Z,58.83
2018-03-20T11:28:46.205Z,59.40
2018-03-20T11:29:46.153Z,59.11
2018-03-20T11:30:46.178Z,59.11
2018-03-20T11:31:46.097Z,59.11
2018-03-20T11:32:46.078Z,59.11
2018-03-20T11:33:46.111Z,58.64
2018-03-20T11:34:46.013Z,58.54
2018-03-20T11:35:45.990Z,58.45
2018-03-20T11:36:45.967Z,58.17
2018-03-20T11:37:45.951Z,57.88
2018-03-20T11:38:45.913Z,58.07
2018-03-20T11:39:45.975Z,57.98
2018-03-20T11:40:45.895Z,57.69
2018-03-20T11:41:45.877Z,57.88
2018-03-20T11:42:45.833Z,57.88
2018-03-20T11:43:45.774Z,57.12
2018-03-20T11:44:45.748Z,57.69
2018-03-20T11:45:45.766Z,57.50
2018-03-20T11:46:45.687Z,56.55
2018-03-20T11:47:45.660Z,55.70
2018-03-20T11:48:45.717Z,55.51
2018-03-20T11:49:45.643Z,56.29
2018-03-20T11:50:45.582Z,56.17
2018-03-20T11:51:45.558Z,55.16
2018-03-20T11:52:45.563Z,54.78
2018-03-20T11:53:45.518Z,54.02
2018-03-20T11:54:45.507Z,53.92
2018-03-20T11:55:45.452Z,54.21
2018-03-20T11:56:45.448Z,53.07
2018-03-20T11:57:45.431Z,53.16
2018-03-20T11:58:45.423Z,53.35
2018-03-20T11:59:45.369Z,53.64
2018-03-20T12:00:45.312Z,52.87
2018-03-20T12:01:45.280Z,51.74
2018-03-20T12:02:45.246Z,51.74
2018-03-20T12:03:45.229Z,50.51
2018-03-20T12:04:45.195Z,50.79
2018-03-20T12:05:45.173Z,50.60
2018-03-20T12:06:45.133Z,50.03
2018-03-20T12:07:45.111Z,50.03
2018-03-20T12:08:45.089Z,50.41
2018-03-20T12:09:45.112Z,51.36
2018-03-20T12:10:45.026Z,51.45
2018-03-20T12:11:45.002Z,50.79
2018-03-20T12:12:45.062Z,50.51
2018-03-20T12:13:44.946Z,50.22
2018-03-20T12:14:44.946Z,49.84
2018-03-20T12:15:44.894Z,49.27
2018-03-20T12:16:44.917Z,49.08
2018-03-20T12:17:44.840Z,49.27
2018-03-20T12:18:44.851Z,49.65
2018-03-20T12:19:44.780Z,50.12
2018-03-20T12:20:44.755Z,50.03
2018-03-20T12:21:44.790Z,49.08
2018-03-20T12:22:44.703Z,48.70
2018-03-20T12:23:44.680Z,48.32
2018-03-20T12:24:44.642Z,48.70
2018-03-20T12:25:44.621Z,48.41
2018-03-20T12:26:44.632Z,47.18
2018-03-20T12:27:44.563Z,46.99
2018-03-20T12:28:44.593Z,47.09
2018-03-20T12:29:44.512Z,46.80
2018-03-20T12:30:44.485Z,46.42
2018-03-20T12:31:44.525Z,47.09
2018-03-20T12:32:44.469Z,47.37
2018-03-20T12:33:44.461Z,46.80
2018-03-20T12:34:44.398Z,47.09
2018-03-20T12:35:45.381Z,46.99
2018-03-20T12:36:44.422Z,47.18
2018-03-20T12:37:44.342Z,47.37
2018-03-20T12:38:44.264Z,47.30
2018-03-20T12:39:44.230Z,46.61
2018-03-20T12:40:44.218Z,46.33
2018-03-20T12:41:44.187Z,46.25
2018-03-20T12:42:44.149Z,46.92
2018-03-20T12:43:44.128Z,46.73
2018-03-20T12:44:44.099Z,45.87
2018-03-20T12:45:44.066Z,46.06
2018-03-20T12:46:44.117Z,44.93
2018-03-20T12:47:44.017Z,44.93
2018-03-20T12:48:43.996Z,44.35
2018-03-20T12:49:43.965Z,44.83
2018-03-20T12:50:43.938Z,46.16
2018-03-20T12:51:43.907Z,45.59